sensor_id;sensor_type;location;lat;lon;timestamp;P1;durP1;ratioP1;P2;durP2;ratioP2
55270;SDS011;41132;47.162;9.470;2023-03-01T00:02:03;16.95;;;10.20;;
55270;SDS011;41132;47.162;9.470;2023-03-01T00:04:29;15.48;;;10.27;;
55270;SDS011;41132;47.162;9.470;2023-03-01T00:06:55;15.85;;;10.98;;
55270;SDS011;41132;47.162;9.470;2023-03-01T00:09:21;17.23;;;10.85;;
55270;SDS011;41132;47.162;9.470;2023-03-01T00:11:48;15.45;;;10.55;;
55270;SDS011;41132;47.162;9.470;2023-03-01T00:14:13;16.77;;;10.73;;
55270;SDS011;41132;47.162;9.470;2023-03-01T00:16:41;14.90;;;9.20;;
55270;SDS011;41132;47.162;9.470;2023-03-01T00:19:16;17.75;;;10.15;;
55270;SDS011;41132;47.162;9.470;2023-03-01T00:21:44;16.52;;;10.77;;
55270;SDS011;41132;47.162;9.470;2023-03-01T00:24:10;16.25;;;10.55;;
55270;SDS011;41132;47.162;9.470;2023-03-01T00:26:35;16.10;;;10.20;;
55270;SDS011;41132;47.162;9.470;2023-03-01T00:29:01;16.85;;;10.50;;
55270;SDS011;41132;47.162;9.470;2023-03-01T00:31:27;14.63;;;9.65;;
55270;SDS011;41132;47.162;9.470;2023-03-01T00:33:55;17.08;;;9.98;;
55270;SDS011;41132;47.162;9.470;2023-03-01T00:36:23;16.95;;;10.77;;
55270;SDS011;41132;47.162;9.470;2023-03-01T00:38:50;15.75;;;10.35;;
55270;SDS011;41132;47.162;9.470;2023-03-01T00:41:16;17.60;;;9.60;;
55270;SDS011;41132;47.162;9.470;2023-03-01T00:43:42;16.83;;;10.73;;
55270;SDS011;41132;47.162;9.470;2023-03-01T00:46:09;16.13;;;9.95;;
55270;SDS011;41132;47.162;9.470;2023-03-01T00:48:37;18.95;;;10.38;;
55270;SDS011;41132;47.162;9.470;2023-03-01T00:51:06;16.33;;;10.50;;
55270;SDS011;41132;47.162;9.470;2023-03-01T00:53:35;17.92;;;11.18;;
55270;SDS011;41132;47.162;9.470;2023-03-01T00:56:01;19.52;;;11.65;;
55270;SDS011;41132;47.162;9.470;2023-03-01T00:58:27;17.58;;;11.18;;
55270;SDS011;41132;47.162;9.470;2023-03-01T01:00:53;17.55;;;10.45;;
55270;SDS011;41132;47.162;9.470;2023-03-01T01:03:19;16.63;;;11.10;;
55270;SDS011;41132;47.162;9.470;2023-03-01T01:05:44;14.50;;;9.57;;
55270;SDS011;41132;47.162;9.470;2023-03-01T01:08:10;17.27;;;10.85;;
55270;SDS011;41132;47.162;9.470;2023-03-01T01:10:35;17.00;;;10.90;;
55270;SDS011;41132;47.162;9.470;2023-03-01T01:13:01;18.63;;;11.18;;
55270;SDS011;41132;47.162;9.470;2023-03-01T01:15:26;17.77;;;11.73;;
55270;SDS011;41132;47.162;9.470;2023-03-01T01:17:52;16.55;;;11.52;;
55270;SDS011;41132;47.162;9.470;2023-03-01T01:22:52;18.80;;;11.40;;
55270;SDS011;41132;47.162;9.470;2023-03-01T01:25:18;18.88;;;11.95;;
55270;SDS011;41132;47.162;9.470;2023-03-01T01:27:44;19.25;;;11.40;;
55270;SDS011;41132;47.162;9.470;2023-03-01T01:30:09;18.15;;;11.82;;
55270;SDS011;41132;47.162;9.470;2023-03-01T01:35:10;17.38;;;12.23;;
55270;SDS011;41132;47.162;9.470;2023-03-01T01:37:36;16.42;;;11.07;;
55270;SDS011;41132;47.162;9.470;2023-03-01T01:40:01;17.95;;;10.52;;
55270;SDS011;41132;47.162;9.470;2023-03-01T01:42:29;16.80;;;11.57;;
55270;SDS011;41132;47.162;9.470;2023-03-01T01:48:00;16.70;;;11.30;;
55270;SDS011;41132;47.162;9.470;2023-03-01T01:50:29;18.33;;;11.18;;
55270;SDS011;41132;47.162;9.470;2023-03-01T01:53:02;17.45;;;11.50;;
55270;SDS011;41132;47.162;9.470;2023-03-01T01:55:39;17.92;;;10.90;;
55270;SDS011;41132;47.162;9.470;2023-03-01T01:58:17;17.00;;;10.63;;
55270;SDS011;41132;47.162;9.470;2023-03-01T02:00:44;17.40;;;11.18;;
55270;SDS011;41132;47.162;9.470;2023-03-01T02:03:10;17.52;;;11.20;;
55270;SDS011;41132;47.162;9.470;2023-03-01T02:05:43;18.98;;;11.77;;
55270;SDS011;41132;47.162;9.470;2023-03-01T02:08:11;19.00;;;11.88;;
55270;SDS011;41132;47.162;9.470;2023-03-01T02:10:38;17.52;;;11.60;;
55270;SDS011;41132;47.162;9.470;2023-03-01T02:13:05;17.55;;;11.75;;
55270;SDS011;41132;47.162;9.470;2023-03-01T02:15:32;18.13;;;11.07;;
55270;SDS011;41132;47.162;9.470;2023-03-01T02:18:00;19.42;;;12.20;;
55270;SDS011;41132;47.162;9.470;2023-03-01T02:20:33;17.75;;;11.63;;
55270;SDS011;41132;47.162;9.470;2023-03-01T02:23:04;17.33;;;11.77;;
55270;SDS011;41132;47.162;9.470;2023-03-01T02:30:43;21.35;;;12.20;;
55270;SDS011;41132;47.162;9.470;2023-03-01T02:33:30;15.95;;;10.73;;
55270;SDS011;41132;47.162;9.470;2023-03-01T02:35:57;18.65;;;11.80;;
55270;SDS011;41132;47.162;9.470;2023-03-01T02:38:25;19.55;;;11.55;;
55270;SDS011;41132;47.162;9.470;2023-03-01T02:40:51;19.65;;;12.07;;
55270;SDS011;41132;47.162;9.470;2023-03-01T02:43:19;19.42;;;12.20;;
55270;SDS011;41132;47.162;9.470;2023-03-01T02:45:50;17.92;;;11.18;;
55270;SDS011;41132;47.162;9.470;2023-03-01T02:48:17;15.88;;;10.57;;
55270;SDS011;41132;47.162;9.470;2023-03-01T02:51:03;17.15;;;11.00;;
55270;SDS011;41132;47.162;9.470;2023-03-01T02:56:10;17.05;;;10.98;;
55270;SDS011;41132;47.162;9.470;2023-03-01T02:58:39;18.20;;;11.75;;
55270;SDS011;41132;47.162;9.470;2023-03-01T03:01:11;19.58;;;11.73;;
55270;SDS011;41132;47.162;9.470;2023-03-01T03:03:38;16.92;;;10.75;;
55270;SDS011;41132;47.162;9.470;2023-03-01T03:06:03;18.55;;;12.30;;
55270;SDS011;41132;47.162;9.470;2023-03-01T03:08:29;21.05;;;11.50;;
55270;SDS011;41132;47.162;9.470;2023-03-01T03:10:54;15.45;;;10.05;;
55270;SDS011;41132;47.162;9.470;2023-03-01T03:13:19;18.35;;;12.15;;
55270;SDS011;41132;47.162;9.470;2023-03-01T03:15:47;17.80;;;11.25;;
55270;SDS011;41132;47.162;9.470;2023-03-01T03:18:14;19.00;;;12.18;;
55270;SDS011;41132;47.162;9.470;2023-03-01T03:20:41;20.75;;;11.32;;
55270;SDS011;41132;47.162;9.470;2023-03-01T03:23:07;19.50;;;12.00;;
55270;SDS011;41132;47.162;9.470;2023-03-01T03:25:33;17.33;;;10.82;;
55270;SDS011;41132;47.162;9.470;2023-03-01T03:28:02;14.82;;;10.40;;
55270;SDS011;41132;47.162;9.470;2023-03-01T03:30:34;18.38;;;11.32;;
55270;SDS011;41132;47.162;9.470;2023-03-01T03:33:01;20.70;;;11.52;;
55270;SDS011;41132;47.162;9.470;2023-03-01T03:35:31;19.08;;;11.38;;
55270;SDS011;41132;47.162;9.470;2023-03-01T03:37:59;17.45;;;11.00;;
55270;SDS011;41132;47.162;9.470;2023-03-01T03:40:34;16.92;;;10.77;;
55270;SDS011;41132;47.162;9.470;2023-03-01T03:43:02;16.83;;;11.50;;
55270;SDS011;41132;47.162;9.470;2023-03-01T03:45:28;17.05;;;11.00;;
55270;SDS011;41132;47.162;9.470;2023-03-01T03:47:54;16.48;;;11.02;;
55270;SDS011;41132;47.162;9.470;2023-03-01T03:50:19;16.52;;;10.75;;
55270;SDS011;41132;47.162;9.470;2023-03-01T03:52:44;17.77;;;11.07;;
55270;SDS011;41132;47.162;9.470;2023-03-01T03:55:11;20.17;;;11.45;;
55270;SDS011;41132;47.162;9.470;2023-03-01T03:57:37;17.83;;;11.23;;
55270;SDS011;41132;47.162;9.470;2023-03-01T04:00:06;18.35;;;11.13;;
55270;SDS011;41132;47.162;9.470;2023-03-01T04:02:47;18.08;;;11.52;;
55270;SDS011;41132;47.162;9.470;2023-03-01T04:05:14;18.73;;;11.55;;
55270;SDS011;41132;47.162;9.470;2023-03-01T04:07:41;18.10;;;11.90;;
55270;SDS011;41132;47.162;9.470;2023-03-01T05:20:24;15.35;;;10.00;;
55270;SDS011;41132;47.162;9.470;2023-03-01T05:25:28;18.08;;;10.93;;
55270;SDS011;41132;47.162;9.470;2023-03-01T05:27:57;18.85;;;11.38;;
55270;SDS011;41132;47.162;9.470;2023-03-01T05:40:49;18.48;;;12.88;;
55270;SDS011;41132;47.162;9.470;2023-03-01T05:43:16;15.63;;;11.02;;
55270;SDS011;41132;47.162;9.470;2023-03-01T05:45:43;20.00;;;11.10;;
55270;SDS011;41132;47.162;9.470;2023-03-01T05:48:09;16.70;;;10.43;;
55270;SDS011;41132;47.162;9.470;2023-03-01T05:50:36;16.48;;;10.98;;
55270;SDS011;41132;47.162;9.470;2023-03-01T05:53:09;16.45;;;10.18;;
55270;SDS011;41132;47.162;9.470;2023-03-01T05:55:36;16.48;;;10.60;;
55270;SDS011;41132;47.162;9.470;2023-03-01T06:05:48;19.10;;;10.40;;
55270;SDS011;41132;47.162;9.470;2023-03-01T06:15:59;18.08;;;10.55;;
55270;SDS011;41132;47.162;9.470;2023-03-01T06:18:24;16.95;;;10.00;;
55270;SDS011;41132;47.162;9.470;2023-03-01T06:20:55;19.08;;;11.20;;
55270;SDS011;41132;47.162;9.470;2023-03-01T06:44:11;16.80;;;10.15;;
55270;SDS011;41132;47.162;9.470;2023-03-01T06:46:38;16.08;;;10.07;;
55270;SDS011;41132;47.162;9.470;2023-03-01T07:09:17;19.33;;;10.10;;
55270;SDS011;41132;47.162;9.470;2023-03-01T07:11:44;19.30;;;9.73;;
55270;SDS011;41132;47.162;9.470;2023-03-01T07:14:10;18.05;;;9.93;;
55270;SDS011;41132;47.162;9.470;2023-03-01T07:16:35;19.00;;;9.93;;
55270;SDS011;41132;47.162;9.470;2023-03-01T07:19:00;17.35;;;10.85;;
55270;SDS011;41132;47.162;9.470;2023-03-01T07:21:26;14.65;;;9.38;;
55270;SDS011;41132;47.162;9.470;2023-03-01T07:23:51;15.68;;;9.38;;
55270;SDS011;41132;47.162;9.470;2023-03-01T07:26:16;16.60;;;10.23;;
55270;SDS011;41132;47.162;9.470;2023-03-01T07:28:42;17.08;;;10.00;;
55270;SDS011;41132;47.162;9.470;2023-03-01T07:31:07;14.60;;;9.75;;
55270;SDS011;41132;47.162;9.470;2023-03-01T07:33:32;20.00;;;10.23;;
55270;SDS011;41132;47.162;9.470;2023-03-01T07:35:58;17.75;;;10.88;;
55270;SDS011;41132;47.162;9.470;2023-03-01T07:38:25;19.08;;;8.90;;
55270;SDS011;41132;47.162;9.470;2023-03-01T07:40:51;17.42;;;9.75;;
55270;SDS011;41132;47.162;9.470;2023-03-01T07:43:17;30.45;;;16.20;;
55270;SDS011;41132;47.162;9.470;2023-03-01T07:45:43;25.65;;;13.48;;
55270;SDS011;41132;47.162;9.470;2023-03-01T07:48:08;17.25;;;11.00;;
55270;SDS011;41132;47.162;9.470;2023-03-01T07:50:34;17.40;;;10.68;;
55270;SDS011;41132;47.162;9.470;2023-03-01T07:53:00;18.73;;;10.70;;
55270;SDS011;41132;47.162;9.470;2023-03-01T07:55:25;16.80;;;9.23;;
55270;SDS011;41132;47.162;9.470;2023-03-01T07:57:51;14.65;;;9.85;;
55270;SDS011;41132;47.162;9.470;2023-03-01T08:00:16;19.35;;;10.55;;
55270;SDS011;41132;47.162;9.470;2023-03-01T08:02:42;16.05;;;10.75;;
55270;SDS011;41132;47.162;9.470;2023-03-01T08:05:08;18.15;;;11.02;;
55270;SDS011;41132;47.162;9.470;2023-03-01T08:07:34;17.63;;;10.35;;
55270;SDS011;41132;47.162;9.470;2023-03-01T08:10:00;18.05;;;10.63;;
55270;SDS011;41132;47.162;9.470;2023-03-01T08:12:25;17.70;;;10.65;;
55270;SDS011;41132;47.162;9.470;2023-03-01T08:14:52;18.33;;;9.65;;
55270;SDS011;41132;47.162;9.470;2023-03-01T08:17:18;15.35;;;9.90;;
55270;SDS011;41132;47.162;9.470;2023-03-01T08:19:43;20.17;;;10.20;;
55270;SDS011;41132;47.162;9.470;2023-03-01T08:22:08;15.15;;;10.10;;
55270;SDS011;41132;47.162;9.470;2023-03-01T08:24:34;16.02;;;10.07;;
55270;SDS011;41132;47.162;9.470;2023-03-01T08:26:59;16.90;;;10.23;;
55270;SDS011;41132;47.162;9.470;2023-03-01T08:29:24;15.02;;;9.60;;
55270;SDS011;41132;47.162;9.470;2023-03-01T08:31:50;17.00;;;9.55;;
55270;SDS011;41132;47.162;9.470;2023-03-01T08:34:16;16.85;;;10.02;;
55270;SDS011;41132;47.162;9.470;2023-03-01T08:36:44;16.38;;;10.13;;
55270;SDS011;41132;47.162;9.470;2023-03-01T08:39:11;18.27;;;10.45;;
55270;SDS011;41132;47.162;9.470;2023-03-01T08:41:39;19.23;;;11.07;;
55270;SDS011;41132;47.162;9.470;2023-03-01T08:44:04;16.52;;;10.15;;
55270;SDS011;41132;47.162;9.470;2023-03-01T08:46:31;16.50;;;11.02;;
55270;SDS011;41132;47.162;9.470;2023-03-01T08:49:03;18.25;;;10.18;;
55270;SDS011;41132;47.162;9.470;2023-03-01T08:51:29;18.55;;;10.93;;
55270;SDS011;41132;47.162;9.470;2023-03-01T08:53:56;16.35;;;9.35;;
55270;SDS011;41132;47.162;9.470;2023-03-01T08:56:22;16.02;;;9.82;;
55270;SDS011;41132;47.162;9.470;2023-03-01T08:58:48;17.50;;;11.20;;
55270;SDS011;41132;47.162;9.470;2023-03-01T09:01:17;19.00;;;10.60;;
55270;SDS011;41132;47.162;9.470;2023-03-01T09:03:44;18.08;;;10.65;;
55270;SDS011;41132;47.162;9.470;2023-03-01T09:06:10;20.80;;;11.20;;
55270;SDS011;41132;47.162;9.470;2023-03-01T09:08:37;17.67;;;10.45;;
55270;SDS011;41132;47.162;9.470;2023-03-01T09:11:05;18.40;;;11.13;;
55270;SDS011;41132;47.162;9.470;2023-03-01T09:13:32;16.73;;;10.40;;
55270;SDS011;41132;47.162;9.470;2023-03-01T09:15:59;15.07;;;10.35;;
55270;SDS011;41132;47.162;9.470;2023-03-01T09:18:26;17.05;;;10.60;;
55270;SDS011;41132;47.162;9.470;2023-03-01T09:20:51;16.55;;;9.93;;
55270;SDS011;41132;47.162;9.470;2023-03-01T09:23:19;16.40;;;9.90;;
55270;SDS011;41132;47.162;9.470;2023-03-01T09:25:46;17.67;;;10.10;;
55270;SDS011;41132;47.162;9.470;2023-03-01T09:28:11;20.17;;;10.82;;
55270;SDS011;41132;47.162;9.470;2023-03-01T09:30:36;16.65;;;9.75;;
55270;SDS011;41132;47.162;9.470;2023-03-01T09:33:02;18.10;;;10.45;;
55270;SDS011;41132;47.162;9.470;2023-03-01T09:35:27;16.73;;;10.05;;
55270;SDS011;41132;47.162;9.470;2023-03-01T09:37:53;17.10;;;10.55;;
55270;SDS011;41132;47.162;9.470;2023-03-01T09:40:20;19.67;;;9.95;;
55270;SDS011;41132;47.162;9.470;2023-03-01T09:43:07;16.83;;;10.23;;
55270;SDS011;41132;47.162;9.470;2023-03-01T09:45:41;15.45;;;9.80;;
55270;SDS011;41132;47.162;9.470;2023-03-01T09:48:13;17.02;;;10.13;;
55270;SDS011;41132;47.162;9.470;2023-03-01T09:50:43;16.38;;;9.23;;
55270;SDS011;41132;47.162;9.470;2023-03-01T09:53:16;16.50;;;10.27;;
55270;SDS011;41132;47.162;9.470;2023-03-01T09:56:00;17.55;;;10.55;;
55270;SDS011;41132;47.162;9.470;2023-03-01T09:58:41;18.42;;;11.27;;
55270;SDS011;41132;47.162;9.470;2023-03-01T10:09:44;18.25;;;10.68;;
55270;SDS011;41132;47.162;9.470;2023-03-01T10:12:18;18.95;;;11.10;;
55270;SDS011;41132;47.162;9.470;2023-03-01T10:14:54;18.15;;;10.50;;
55270;SDS011;41132;47.162;9.470;2023-03-01T10:17:30;18.23;;;11.07;;
55270;SDS011;41132;47.162;9.470;2023-03-01T10:20:14;17.63;;;9.52;;
55270;SDS011;41132;47.162;9.470;2023-03-01T10:22:45;16.58;;;9.98;;
55270;SDS011;41132;47.162;9.470;2023-03-01T10:25:15;15.02;;;9.70;;
55270;SDS011;41132;47.162;9.470;2023-03-01T10:27:52;16.05;;;10.13;;
55270;SDS011;41132;47.162;9.470;2023-03-01T10:30:21;18.80;;;9.63;;
55270;SDS011;41132;47.162;9.470;2023-03-01T10:32:54;17.80;;;9.77;;
55270;SDS011;41132;47.162;9.470;2023-03-01T10:35:23;19.02;;;10.10;;
55270;SDS011;41132;47.162;9.470;2023-03-01T10:37:57;15.75;;;9.73;;
55270;SDS011;41132;47.162;9.470;2023-03-01T10:43:22;17.73;;;10.43;;
55270;SDS011;41132;47.162;9.470;2023-03-01T10:45:50;16.13;;;9.77;;
55270;SDS011;41132;47.162;9.470;2023-03-01T10:48:20;14.77;;;9.25;;
55270;SDS011;41132;47.162;9.470;2023-03-01T10:53:24;18.92;;;10.35;;
55270;SDS011;41132;47.162;9.470;2023-03-01T10:55:58;16.70;;;9.80;;
55270;SDS011;41132;47.162;9.470;2023-03-01T10:58:27;15.38;;;9.77;;
55270;SDS011;41132;47.162;9.470;2023-03-01T11:01:24;14.43;;;9.18;;
55270;SDS011;41132;47.162;9.470;2023-03-01T11:03:42;17.40;;;10.32;;
55270;SDS011;41132;47.162;9.470;2023-03-01T11:08:37;18.70;;;10.13;;
55270;SDS011;41132;47.162;9.470;2023-03-01T11:11:17;17.17;;;9.68;;
55270;SDS011;41132;47.162;9.470;2023-03-01T11:16:22;15.48;;;8.98;;
55270;SDS011;41132;47.162;9.470;2023-03-01T11:18:57;15.63;;;9.10;;
55270;SDS011;41132;47.162;9.470;2023-03-01T11:21:25;14.45;;;9.60;;
55270;SDS011;41132;47.162;9.470;2023-03-01T11:23:53;16.50;;;10.43;;
55270;SDS011;41132;47.162;9.470;2023-03-01T11:26:18;16.33;;;10.32;;
55270;SDS011;41132;47.162;9.470;2023-03-01T11:28:45;19.00;;;9.52;;
55270;SDS011;41132;47.162;9.470;2023-03-01T11:31:16;19.25;;;10.35;;
55270;SDS011;41132;47.162;9.470;2023-03-01T11:39:02;16.23;;;9.77;;
55270;SDS011;41132;47.162;9.470;2023-03-01T11:41:38;16.45;;;9.52;;
55270;SDS011;41132;47.162;9.470;2023-03-01T11:44:14;16.13;;;9.57;;
55270;SDS011;41132;47.162;9.470;2023-03-01T11:50:07;14.73;;;9.45;;
55270;SDS011;41132;47.162;9.470;2023-03-01T11:52:52;16.10;;;10.13;;
55270;SDS011;41132;47.162;9.470;2023-03-01T12:09:21;16.02;;;9.43;;
55270;SDS011;41132;47.162;9.470;2023-03-01T12:11:56;14.65;;;9.05;;
55270;SDS011;41132;47.162;9.470;2023-03-01T12:42:21;13.90;;;8.55;;
55270;SDS011;41132;47.162;9.470;2023-03-01T12:47:46;14.02;;;8.65;;
55270;SDS011;41132;47.162;9.470;2023-03-01T12:50:21;15.50;;;9.20;;
55270;SDS011;41132;47.162;9.470;2023-03-01T12:52:53;14.95;;;9.02;;
55270;SDS011;41132;47.162;9.470;2023-03-01T13:15:24;12.63;;;7.57;;
55270;SDS011;41132;47.162;9.470;2023-03-01T13:17:50;13.90;;;8.55;;
55270;SDS011;41132;47.162;9.470;2023-03-01T13:21:06;14.05;;;8.43;;
55270;SDS011;41132;47.162;9.470;2023-03-01T13:23:07;15.75;;;7.78;;
55270;SDS011;41132;47.162;9.470;2023-03-01T13:25:50;13.20;;;8.13;;
55270;SDS011;41132;47.162;9.470;2023-03-01T13:33:51;14.68;;;8.80;;
55270;SDS011;41132;47.162;9.470;2023-03-01T13:38:56;14.38;;;8.23;;
55270;SDS011;41132;47.162;9.470;2023-03-01T13:46:48;14.95;;;8.65;;
55270;SDS011;41132;47.162;9.470;2023-03-01T13:49:16;13.30;;;7.78;;
55270;SDS011;41132;47.162;9.470;2023-03-01T13:51:46;12.20;;;7.65;;
55270;SDS011;41132;47.162;9.470;2023-03-01T13:54:14;14.25;;;9.05;;
55270;SDS011;41132;47.162;9.470;2023-03-01T13:56:41;12.95;;;8.65;;
55270;SDS011;41132;47.162;9.470;2023-03-01T13:59:15;13.95;;;8.38;;
55270;SDS011;41132;47.162;9.470;2023-03-01T14:01:43;12.60;;;7.78;;
55270;SDS011;41132;47.162;9.470;2023-03-01T14:04:27;12.35;;;8.05;;
55270;SDS011;41132;47.162;9.470;2023-03-01T14:09:58;13.75;;;8.23;;
55270;SDS011;41132;47.162;9.470;2023-03-01T14:15:33;15.35;;;9.55;;
55270;SDS011;41132;47.162;9.470;2023-03-01T14:18:12;14.07;;;8.20;;
55270;SDS011;41132;47.162;9.470;2023-03-01T14:20:45;14.43;;;9.50;;
55270;SDS011;41132;47.162;9.470;2023-03-01T14:23:17;13.68;;;8.98;;
55270;SDS011;41132;47.162;9.470;2023-03-01T14:25:52;15.13;;;8.75;;
55270;SDS011;41132;47.162;9.470;2023-03-01T14:30:52;16.25;;;9.13;;
55270;SDS011;41132;47.162;9.470;2023-03-01T14:38:22;14.27;;;7.97;;
55270;SDS011;41132;47.162;9.470;2023-03-01T14:40:54;13.98;;;9.02;;
55270;SDS011;41132;47.162;9.470;2023-03-01T14:43:23;13.75;;;8.35;;
55270;SDS011;41132;47.162;9.470;2023-03-01T14:45:51;14.43;;;7.65;;
55270;SDS011;41132;47.162;9.470;2023-03-01T14:48:16;13.02;;;8.20;;
55270;SDS011;41132;47.162;9.470;2023-03-01T14:50:43;15.02;;;8.10;;
55270;SDS011;41132;47.162;9.470;2023-03-01T14:53:26;14.00;;;8.30;;
55270;SDS011;41132;47.162;9.470;2023-03-01T14:58:24;14.77;;;9.35;;
55270;SDS011;41132;47.162;9.470;2023-03-01T15:00:52;12.73;;;7.82;;
55270;SDS011;41132;47.162;9.470;2023-03-01T15:03:23;14.85;;;8.77;;
55270;SDS011;41132;47.162;9.470;2023-03-01T15:05:55;14.32;;;9.05;;
55270;SDS011;41132;47.162;9.470;2023-03-01T15:08:23;15.40;;;9.18;;
55270;SDS011;41132;47.162;9.470;2023-03-01T15:13:45;11.70;;;7.57;;
55270;SDS011;41132;47.162;9.470;2023-03-01T15:16:30;16.23;;;8.65;;
55270;SDS011;41132;47.162;9.470;2023-03-01T15:18:58;15.57;;;8.55;;
55270;SDS011;41132;47.162;9.470;2023-03-01T15:21:26;14.55;;;8.50;;
55270;SDS011;41132;47.162;9.470;2023-03-01T15:26:43;15.02;;;7.78;;
55270;SDS011;41132;47.162;9.470;2023-03-01T15:29:16;15.23;;;8.38;;
55270;SDS011;41132;47.162;9.470;2023-03-01T15:31:52;12.80;;;8.10;;
55270;SDS011;41132;47.162;9.470;2023-03-01T15:34:24;13.48;;;8.15;;
55270;SDS011;41132;47.162;9.470;2023-03-01T15:37:02;14.38;;;8.25;;
55270;SDS011;41132;47.162;9.470;2023-03-01T15:39:35;15.18;;;8.75;;
55270;SDS011;41132;47.162;9.470;2023-03-01T15:42:35;12.80;;;7.70;;
55270;SDS011;41132;47.162;9.470;2023-03-01T15:45:20;14.23;;;8.52;;
55270;SDS011;41132;47.162;9.470;2023-03-01T15:47:55;12.55;;;7.28;;
55270;SDS011;41132;47.162;9.470;2023-03-01T15:50:24;13.43;;;7.70;;
55270;SDS011;41132;47.162;9.470;2023-03-01T15:52:52;15.20;;;8.98;;
55270;SDS011;41132;47.162;9.470;2023-03-01T15:55:29;13.95;;;8.38;;
55270;SDS011;41132;47.162;9.470;2023-03-01T15:58:14;14.50;;;8.43;;
55270;SDS011;41132;47.162;9.470;2023-03-01T16:00:42;15.07;;;9.02;;
55270;SDS011;41132;47.162;9.470;2023-03-01T16:03:08;13.45;;;8.18;;
55270;SDS011;41132;47.162;9.470;2023-03-01T16:05:36;15.63;;;9.15;;
55270;SDS011;41132;47.162;9.470;2023-03-01T16:08:03;14.93;;;8.48;;
55270;SDS011;41132;47.162;9.470;2023-03-01T16:10:30;15.05;;;8.73;;
55270;SDS011;41132;47.162;9.470;2023-03-01T16:12:56;16.05;;;8.38;;
55270;SDS011;41132;47.162;9.470;2023-03-01T16:15:23;15.48;;;9.88;;
55270;SDS011;41132;47.162;9.470;2023-03-01T16:17:53;14.57;;;9.20;;
55270;SDS011;41132;47.162;9.470;2023-03-01T16:20:19;17.50;;;8.30;;
55270;SDS011;41132;47.162;9.470;2023-03-01T16:22:45;12.80;;;8.10;;
55270;SDS011;41132;47.162;9.470;2023-03-01T16:25:11;14.65;;;8.75;;
55270;SDS011;41132;47.162;9.470;2023-03-01T16:27:41;12.43;;;7.32;;
55270;SDS011;41132;47.162;9.470;2023-03-01T16:30:08;14.85;;;7.60;;
55270;SDS011;41132;47.162;9.470;2023-03-01T16:32:37;15.18;;;9.32;;
55270;SDS011;41132;47.162;9.470;2023-03-01T16:35:04;16.00;;;8.70;;
55270;SDS011;41132;47.162;9.470;2023-03-01T16:37:31;13.48;;;8.48;;
55270;SDS011;41132;47.162;9.470;2023-03-01T16:39:58;14.07;;;8.80;;
55270;SDS011;41132;47.162;9.470;2023-03-01T16:42:23;14.75;;;8.40;;
55270;SDS011;41132;47.162;9.470;2023-03-01T16:44:48;12.65;;;7.70;;
55270;SDS011;41132;47.162;9.470;2023-03-01T16:47:20;16.67;;;8.90;;
55270;SDS011;41132;47.162;9.470;2023-03-01T16:49:45;15.57;;;9.63;;
55270;SDS011;41132;47.162;9.470;2023-03-01T16:52:10;13.20;;;8.35;;
55270;SDS011;41132;47.162;9.470;2023-03-01T16:54:36;15.95;;;8.88;;
55270;SDS011;41132;47.162;9.470;2023-03-01T16:57:01;15.23;;;8.90;;
55270;SDS011;41132;47.162;9.470;2023-03-01T16:59:27;15.68;;;9.52;;
55270;SDS011;41132;47.162;9.470;2023-03-01T17:01:52;16.67;;;9.35;;
55270;SDS011;41132;47.162;9.470;2023-03-01T17:04:17;16.05;;;8.95;;
55270;SDS011;41132;47.162;9.470;2023-03-01T17:06:43;13.75;;;8.55;;
55270;SDS011;41132;47.162;9.470;2023-03-01T17:09:08;14.02;;;8.35;;
55270;SDS011;41132;47.162;9.470;2023-03-01T17:11:34;13.77;;;8.88;;
55270;SDS011;41132;47.162;9.470;2023-03-01T17:14:00;15.88;;;8.52;;
55270;SDS011;41132;47.162;9.470;2023-03-01T17:16:26;14.77;;;8.75;;
55270;SDS011;41132;47.162;9.470;2023-03-01T17:18:51;13.48;;;7.90;;
55270;SDS011;41132;47.162;9.470;2023-03-01T17:21:17;14.48;;;9.27;;
55270;SDS011;41132;47.162;9.470;2023-03-01T17:23:43;17.00;;;9.00;;
55270;SDS011;41132;47.162;9.470;2023-03-01T17:26:10;15.52;;;9.20;;
55270;SDS011;41132;47.162;9.470;2023-03-01T17:28:38;14.27;;;8.45;;
55270;SDS011;41132;47.162;9.470;2023-03-01T17:31:04;16.77;;;9.15;;
55270;SDS011;41132;47.162;9.470;2023-03-01T17:33:30;17.48;;;9.68;;
55270;SDS011;41132;47.162;9.470;2023-03-01T17:35:56;14.40;;;9.27;;
55270;SDS011;41132;47.162;9.470;2023-03-01T17:38:22;15.52;;;8.90;;
55270;SDS011;41132;47.162;9.470;2023-03-01T17:40:48;13.88;;;8.70;;
55270;SDS011;41132;47.162;9.470;2023-03-01T17:43:14;16.02;;;9.27;;
55270;SDS011;41132;47.162;9.470;2023-03-01T17:45:42;16.67;;;9.60;;
55270;SDS011;41132;47.162;9.470;2023-03-01T17:48:11;16.17;;;8.57;;
55270;SDS011;41132;47.162;9.470;2023-03-01T17:50:37;13.65;;;8.48;;
55270;SDS011;41132;47.162;9.470;2023-03-01T17:53:04;16.30;;;9.02;;
55270;SDS011;41132;47.162;9.470;2023-03-01T17:55:37;15.82;;;9.60;;
55270;SDS011;41132;47.162;9.470;2023-03-01T17:58:04;15.20;;;9.55;;
55270;SDS011;41132;47.162;9.470;2023-03-01T18:00:30;15.23;;;8.63;;
55270;SDS011;41132;47.162;9.470;2023-03-01T18:02:56;14.75;;;8.70;;
55270;SDS011;41132;47.162;9.470;2023-03-01T18:05:22;16.55;;;9.88;;
55270;SDS011;41132;47.162;9.470;2023-03-01T18:07:47;14.82;;;9.55;;
55270;SDS011;41132;47.162;9.470;2023-03-01T18:10:13;16.35;;;9.63;;
55270;SDS011;41132;47.162;9.470;2023-03-01T18:12:38;14.90;;;9.18;;
55270;SDS011;41132;47.162;9.470;2023-03-01T18:15:04;16.00;;;9.30;;
55270;SDS011;41132;47.162;9.470;2023-03-01T18:17:30;15.10;;;9.15;;
55270;SDS011;41132;47.162;9.470;2023-03-01T18:19:56;15.25;;;9.75;;
55270;SDS011;41132;47.162;9.470;2023-03-01T18:22:22;14.75;;;9.30;;
55270;SDS011;41132;47.162;9.470;2023-03-01T18:24:48;14.88;;;9.20;;
55270;SDS011;41132;47.162;9.470;2023-03-01T18:27:13;13.73;;;8.55;;
55270;SDS011;41132;47.162;9.470;2023-03-01T18:29:39;18.23;;;10.52;;
55270;SDS011;41132;47.162;9.470;2023-03-01T18:32:04;16.35;;;10.20;;
55270;SDS011;41132;47.162;9.470;2023-03-01T18:34:30;17.70;;;9.95;;
55270;SDS011;41132;47.162;9.470;2023-03-01T18:36:56;13.90;;;9.15;;
55270;SDS011;41132;47.162;9.470;2023-03-01T18:39:22;14.45;;;9.73;;
55270;SDS011;41132;47.162;9.470;2023-03-01T18:41:48;24.13;;;15.18;;
55270;SDS011;41132;47.162;9.470;2023-03-01T18:44:14;25.95;;;14.07;;
55270;SDS011;41132;47.162;9.470;2023-03-01T18:46:40;15.52;;;8.98;;
55270;SDS011;41132;47.162;9.470;2023-03-01T18:49:06;16.88;;;9.32;;
55270;SDS011;41132;47.162;9.470;2023-03-01T18:51:32;15.50;;;9.30;;
55270;SDS011;41132;47.162;9.470;2023-03-01T18:53:59;16.92;;;9.68;;
55270;SDS011;41132;47.162;9.470;2023-03-01T18:56:25;14.93;;;8.50;;
55270;SDS011;41132;47.162;9.470;2023-03-01T18:58:53;16.77;;;9.82;;
55270;SDS011;41132;47.162;9.470;2023-03-01T19:01:21;20.02;;;9.77;;
55270;SDS011;41132;47.162;9.470;2023-03-01T19:03:48;14.88;;;9.73;;
55270;SDS011;41132;47.162;9.470;2023-03-01T19:06:13;14.93;;;9.25;;
55270;SDS011;41132;47.162;9.470;2023-03-01T19:08:40;17.42;;;9.57;;
55270;SDS011;41132;47.162;9.470;2023-03-01T19:11:08;13.73;;;8.93;;
55270;SDS011;41132;47.162;9.470;2023-03-01T19:13:36;17.35;;;9.05;;
55270;SDS011;41132;47.162;9.470;2023-03-01T19:16:09;13.90;;;9.30;;
55270;SDS011;41132;47.162;9.470;2023-03-01T19:18:37;16.23;;;9.23;;
55270;SDS011;41132;47.162;9.470;2023-03-01T19:21:05;14.85;;;9.85;;